Time;durP1;ratioP1;P1;durP2;ratioP2;P2;SDS_P1;SDS_P2;PMS_P1;PMS_P2;Temp;Humidity;BMP_temperature;BMP_pressure;BME280_temperature;BME280_humidity;BME280_pressure;Samples;Min_cycle;Max_cycle;Signal;HPM_P1;HPM_P2
2023/03/11 00:00:56;;;;;;;6.93;5.17;;;;;;;15.02;68.85;92859.06;4989610;28;20666;-55
2023/03/11 00:03:23;;;;;;;5.70;5.20;;;;;;;15.00;68.79;92881.66;4989748;28;20204;-47
2023/03/11 00:05:51;;;;;;;7.70;5.20;;;;;;;14.99;68.89;92864.66;4989415;28;20188;-49
2023/03/11 00:08:20;;;;;;;5.57;4.80;;;;;;;14.98;68.84;92863.03;4989927;28;20196;-48
2023/03/11 00:10:48;;;;;;;5.57;4.60;;;;;;;14.95;68.76;92872.00;4989539;28;20535;-49
2023/03/11 00:13:16;;;;;;;5.93;4.67;;;;;;;14.92;68.56;92861.31;4989695;28;20193;-52
2023/03/11 00:15:47;;;;;;;5.23;4.63;;;;;;;14.89;68.62;92854.78;4989385;28;20583;-52
2023/03/11 00:18:14;;;;;;;5.30;4.87;;;;;;;14.88;68.80;92868.66;4989437;28;20244;-51
2023/03/11 00:20:43;;;;;;;4.47;4.00;;;;;;;14.85;68.57;92848.47;4988314;28;20561;-52
2023/03/11 00:23:13;;;;;;;5.27;4.37;;;;;;;14.83;68.53;92854.84;4989737;28;20220;-53
2023/03/11 00:25:40;;;;;;;5.60;4.60;;;;;;;14.82;68.47;92855.84;4989140;28;20553;-50
2023/03/11 00:28:09;;;;;;;4.77;4.27;;;;;;;14.79;68.48;92850.13;4989657;28;20196;-51
2023/03/11 00:30:36;;;;;;;4.93;4.40;;;;;;;14.76;68.87;92845.38;4989692;28;20252;-51
2023/03/11 00:33:05;;;;;;;4.30;3.90;;;;;;;14.77;68.69;92841.03;4989614;28;20216;-49
2023/03/11 00:35:33;;;;;;;5.60;3.80;;;;;;;14.76;68.49;92832.50;4989333;28;20593;-48
2023/03/11 00:38:01;;;;;;;4.30;3.90;;;;;;;14.75;68.60;92841.22;4989127;28;20196;-54
2023/03/11 00:40:30;;;;;;;3.53;3.20;;;;;;;14.73;68.49;92845.81;4989048;28;20189;-55
2023/03/11 00:42:58;;;;;;;4.47;3.37;;;;;;;14.73;68.53;92832.16;4989380;28;20204;-52
2023/03/11 00:45:25;;;;;;;4.17;3.13;;;;;;;14.71;68.57;92837.50;4987280;28;20208;-50
2023/03/11 00:47:53;;;;;;;5.03;3.07;;;;;;;14.69;68.50;92834.38;4989403;28;20185;-51
2023/03/11 00:50:24;;;;;;;3.73;3.37;;;;;;;14.69;68.43;92821.50;4988820;28;20694;-49
2023/03/11 00:52:52;;;;;;;4.03;3.27;;;;;;;14.68;68.62;92806.25;4989285;28;20688;-54
2023/03/11 00:55:22;;;;;;;4.53;2.73;;;;;;;14.67;68.44;92792.59;4988827;28;20724;-53
2023/03/11 00:57:53;;;;;;;3.73;2.93;;;;;;;14.66;68.53;92792.81;4989358;28;20585;-53
2023/03/11 01:00:22;;;;;;;4.23;3.00;;;;;;;14.66;68.56;92787.69;4989363;28;20672;-47
2023/03/11 01:02:50;;;;;;;4.27;2.80;;;;;;;14.64;68.59;92782.75;4980085;28;20230;-54
2023/03/11 01:05:19;;;;;;;3.07;2.77;;;;;;;14.62;68.65;92774.44;4973488;28;20201;-51
2023/03/11 01:07:47;;;;;;;3.53;2.50;;;;;;;14.63;68.54;92777.81;4989391;28;20189;-47
2023/03/11 01:10:15;;;;;;;2.97;2.67;;;;;;;14.63;68.45;92780.38;4990685;28;20200;-48
2023/03/11 01:12:45;;;;;;;3.47;2.73;;;;;;;14.58;68.50;92765.56;4992744;28;20593;-53
2023/03/11 01:15:18;;;;;;;2.70;2.40;;;;;;;14.60;68.54;92780.81;4992731;28;20197;-55
2023/03/11 01:17:44;;;;;;;3.27;2.50;;;;;;;14.59;68.41;92764.56;4992846;28;20243;-52
2023/03/11 01:20:12;;;;;;;2.40;2.20;;;;;;;14.59;68.62;92750.91;4992665;28;20192;-49
2023/03/11 01:22:39;;;;;;;2.57;2.37;;;;;;;14.59;68.68;92751.69;4992639;28;20193;-52
2023/03/11 01:25:09;;;;;;;4.40;3.20;;;;;;;14.58;68.47;92728.78;4992715;28;20189;-49
2023/03/11 01:27:36;;;;;;;3.27;2.43;;;;;;;14.58;68.53;92723.63;4992279;28;20208;-49
2023/03/11 01:30:03;;;;;;;2.53;2.33;;;;;;;14.55;68.68;92714.56;4992237;28;20193;-46
2023/03/11 01:32:30;;;;;;;2.27;2.13;;;;;;;14.53;68.53;92704.47;4992409;28;20232;-48
2023/03/11 01:34:57;;;;;;;3.10;2.50;;;;;;;14.51;68.63;92706.47;4992583;28;20267;-47
2023/03/11 01:37:24;;;;;;;2.73;2.50;;;;;;;14.48;68.92;92708.66;4992392;28;20185;-50
2023/03/11 01:39:50;;;;;;;2.27;2.07;;;;;;;14.46;68.90;92703.69;4991747;28;20212;-47
2023/03/11 01:42:19;;;;;;;2.20;2.00;;;;;;;14.44;69.07;92697.22;4992220;28;20189;-51
2023/03/11 01:44:46;;;;;;;4.40;2.10;;;;;;;14.41;69.18;92695.03;4992523;28;20194;-47
2023/03/11 01:47:34;;;;;;;3.07;2.43;;;;;;;14.37;69.06;92684.38;4992205;28;20196;-46
2023/03/11 01:50:02;;;;;;;2.27;2.07;;;;;;;14.37;69.05;92696.47;4991915;28;20208;-49
2023/03/11 01:52:29;;;;;;;2.27;2.17;;;;;;;14.35;69.19;92701.03;4991748;28;20237;-50
2023/03/11 01:54:56;;;;;;;2.73;2.00;;;;;;;14.34;69.26;92696.91;4991945;28;20193;-54
2023/03/11 01:57:24;;;;;;;2.10;2.00;;;;;;;14.32;69.15;92722.81;4991881;28;20182;-47
2023/03/11 01:59:55;;;;;;;2.63;2.10;;;;;;;14.31;69.38;92723.81;4991838;28;20688;-48
2023/03/11 02:02:26;;;;;;;2.77;2.03;;;;;;;14.31;69.52;92723.81;4991224;28;20196;-45
2023/03/11 02:04:54;;;;;;;3.50;2.30;;;;;;;14.31;69.23;92724.59;4991791;28;20193;-46
2023/03/11 02:07:21;;;;;;;3.27;2.10;;;;;;;14.30;69.14;92723.03;4991700;28;20227;-49
2023/03/11 02:09:48;;;;;;;2.40;2.20;;;;;;;14.30;69.33;92753.09;4991652;28;20201;-48
2023/03/11 02:12:15;;;;;;;2.80;2.27;;;;;;;14.29;69.47;92747.16;4990809;28;20760;-48
2023/03/11 02:14:47;;;;;;;2.33;2.00;;;;;;;14.30;69.32;92743.59;4991114;28;20193;-47
2023/03/11 02:17:15;;;;;;;1.90;1.80;;;;;;;14.29;69.18;92747.16;4991667;28;20193;-48
2023/03/11 02:19:56;;;;;;;2.00;1.90;;;;;;;14.28;69.34;92755.84;4992056;28;20189;-47
2023/03/11 02:22:24;;;;;;;2.70;1.90;;;;;;;14.28;69.26;92757.63;4991013;28;20197;-48
2023/03/11 02:24:57;;;;;;;2.40;2.10;;;;;;;14.28;69.41;92760.19;4991360;28;20232;-48
2023/03/11 02:27:28;;;;;;;2.60;2.20;;;;;;;14.25;69.37;92761.44;4991646;28;20188;-50
2023/03/11 02:29:55;;;;;;;2.30;1.97;;;;;;;14.25;69.30;92763.22;4991636;28;20195;-53
2023/03/11 02:32:22;;;;;;;2.10;1.90;;;;;;;14.26;69.19;92759.63;4990968;28;20578;-50
2023/03/11 02:34:51;;;;;;;1.73;1.63;;;;;;;14.25;69.07;92771.72;4991165;28;20201;-51
2023/03/11 02:37:18;;;;;;;1.90;1.80;;;;;;;14.19;68.99;92757.09;4991268;28;20217;-48
2023/03/11 02:39:47;;;;;;;1.70;1.60;;;;;;;14.23;68.70;92753.13;4991169;28;20307;-49
2023/03/11 02:42:18;;;;;;;1.80;1.70;;;;;;;14.27;68.46;92756.84;4990900;28;20189;-46
2023/03/11 02:44:53;;;;;;;3.87;1.87;;;;;;;14.28;68.38;92762.78;4991204;28;20408;-50
2023/03/11 02:47:20;;;;;;;2.37;1.80;;;;;;;14.28;68.61;92768.69;4991293;28;20259;-51
2023/03/11 02:49:47;;;;;;;1.87;1.40;;;;;;;14.31;68.25;92770.09;4991021;28;20299;-47
2023/03/11 02:52:14;;;;;;;1.93;1.77;;;;;;;14.32;68.30;92777.56;4991023;28;20235;-50
2023/03/11 02:54:41;;;;;;;2.00;1.80;;;;;;;14.34;68.17;92772.25;4990094;28;20696;-48
2023/03/11 02:57:07;;;;;;;1.77;1.67;;;;;;;14.36;68.03;92772.03;4991098;28;20200;-49
2023/03/11 02:59:34;;;;;;;1.60;1.50;;;;;;;14.36;68.00;92759.97;4991082;28;20186;-46
2023/03/11 03:02:03;;;;;;;1.70;1.60;;;;;;;14.38;67.89;92765.69;4991155;28;20197;-47
2023/03/11 03:04:30;;;;;;;1.80;1.70;;;;;;;14.40;68.07;92765.47;4990415;28;20252;-52
2023/03/11 03:06:57;;;;;;;1.63;1.53;;;;;;;14.40;67.79;92755.97;4990881;28;20271;-52
2023/03/11 03:09:24;;;;;;;1.60;1.50;;;;;;;14.41;67.73;92765.25;4990475;28;20189;-48
2023/03/11 03:11:51;;;;;;;1.87;1.77;;;;;;;14.43;67.81;92770.22;4990775;28;20197;-49
2023/03/11 03:14:17;;;;;;;2.37;1.50;;;;;;;14.46;67.67;92767.19;4990134;28;20189;-51
2023/03/11 03:16:44;;;;;;;1.67;1.57;;;;;;;14.46;67.42;92774.91;4990362;28;20665;-50
2023/03/11 03:19:12;;;;;;;2.13;2.03;;;;;;;14.47;67.47;92771.38;4990327;28;20208;-53
2023/03/11 03:21:40;;;;;;;2.33;1.40;;;;;;;14.47;67.29;92766.22;4990996;28;20480;-52
2023/03/11 03:24:07;;;;;;;1.70;1.60;;;;;;;14.47;67.22;92764.44;4989773;28;20220;-47
2023/03/11 03:26:34;;;;;;;2.30;1.40;;;;;;;14.48;67.18;92773.75;4990314;28;20233;-50
2023/03/11 03:29:01;;;;;;;1.87;1.77;;;;;;;14.49;67.17;92765.03;4990520;28;20218;-48
2023/03/11 03:31:27;;;;;;;1.60;1.50;;;;;;;14.51;67.08;92764.84;4990474;28;20188;-49
2023/03/11 03:33:54;;;;;;;1.40;1.30;;;;;;;14.52;66.83;92769.00;4990378;28;20842;-47
2023/03/11 03:36:22;;;;;;;1.40;1.40;;;;;;;14.53;66.78;92757.69;4989586;28;20607;-50
2023/03/11 03:38:54;;;;;;;1.97;1.40;;;;;;;14.52;66.81;92762.06;4990200;28;20280;-49
2023/03/11 03:41:21;;;;;;;1.40;1.40;;;;;;;14.54;66.54;92762.63;4989843;28;20272;-49
2023/03/11 03:43:47;;;;;;;1.63;1.53;;;;;;;14.58;66.64;92762.22;4990242;28;20677;-49
2023/03/11 03:46:14;;;;;;;1.40;1.30;;;;;;;14.58;66.31;92770.72;4989661;28;20617;-49
2023/03/11 03:48:41;;;;;;;1.40;1.30;;;;;;;14.61;66.14;92764.38;4989977;28;20219;-49
2023/03/11 03:51:10;;;;;;;1.57;1.47;;;;;;;14.60;66.15;92771.31;4990049;28;20201;-49
2023/03/11 03:53:38;;;;;;;1.43;1.20;;;;;;;14.61;66.22;92754.88;4990063;28;20232;-52
2023/03/11 03:56:06;;;;;;;1.37;1.30;;;;;;;14.64;66.09;92762.19;4989410;28;20232;-54
2023/03/11 03:58:33;;;;;;;1.40;1.37;;;;;;;14.55;65.69;92740.28;4990002;28;20269;-49
2023/03/11 04:01:00;;;;;;;1.23;1.20;;;;;;;14.65;65.73;92756.03;4989718;28;20263;-51
2023/03/11 04:03:28;;;;;;;1.77;1.20;;;;;;;14.66;65.60;92756.81;4989722;28;20200;-48
2023/03/11 04:05:55;;;;;;;1.13;1.13;;;;;;;14.67;65.54;92760.94;4989900;28;20738;-51
2023/03/11 04:08:21;;;;;;;1.40;1.40;;;;;;;14.68;65.50;92755.63;4989967;28;20196;-47
2023/03/11 04:10:58;;;;;;;1.10;1.10;;;;;;;14.66;65.60;92749.09;4989699;28;20193;-50
2023/03/11 04:13:24;;;;;;;1.40;1.30;;;;;;;14.68;65.29;92750.47;4989842;28;20297;-50
2023/03/11 04:15:51;;;;;;;1.23;1.23;;;;;;;14.69;65.23;92754.59;4989801;28;20665;-53
2023/03/11 04:18:18;;;;;;;1.27;1.27;;;;;;;14.68;65.15;92758.19;4989146;28;20196;-49
2023/03/11 04:20:45;;;;;;;1.23;1.23;;;;;;;14.67;65.26;92760.94;4989488;28;20208;-52
2023/03/11 04:23:12;;;;;;;1.30;1.23;;;;;;;14.63;65.17;92758.00;4989514;28;20592;-54
2023/03/11 04:25:39;;;;;;;1.13;1.13;;;;;;;14.67;65.15;92773.81;4989549;28;20292;-50
2023/03/11 04:28:07;;;;;;;1.27;1.27;;;;;;;14.65;65.08;92768.09;4989570;28;20200;-52
2023/03/11 04:30:34;;;;;;;1.33;1.33;;;;;;;14.65;64.93;92763.75;4988978;28;20622;-51
2023/03/11 04:33:00;;;;;;;1.23;1.23;;;;;;;14.64;64.77;92754.47;4989146;28;20224;-50
2023/03/11 04:35:27;;;;;;;1.20;1.20;;;;;;;14.63;64.62;92765.72;4989821;28;20244;-54
2023/03/11 04:37:54;;;;;;;1.40;1.40;;;;;;;14.63;64.80;92762.38;4992822;28;20204;-53
2023/03/11 04:40:21;;;;;;;1.50;1.40;;;;;;;14.63;64.65;92773.44;4993406;28;20192;-52
2023/03/11 04:42:48;;;;;;;1.20;1.20;;;;;;;14.63;64.57;92768.28;4993345;28;20193;-50
2023/03/11 04:45:17;;;;;;;1.20;1.20;;;;;;;14.64;64.56;92764.75;4993365;28;20265;-51
2023/03/11 04:47:44;;;;;;;1.20;1.20;;;;;;;14.61;64.59;92766.94;4993663;28;20208;-51
2023/03/11 04:50:11;;;;;;;1.80;1.20;;;;;;;14.63;64.45;92767.50;4992962;28;20593;-49
2023/03/11 04:52:38;;;;;;;1.20;1.20;;;;;;;14.64;64.41;92764.75;4993273;28;20286;-51
2023/03/11 04:55:05;;;;;;;1.27;1.27;;;;;;;14.65;64.28;92776.59;4992713;28;20233;-54
2023/03/11 04:57:32;;;;;;;1.00;1.00;;;;;;;14.67;64.21;92773.81;4993431;28;20201;-50
2023/03/11 04:59:59;;;;;;;1.67;1.57;;;;;;;14.68;64.14;92778.78;4993011;28;20204;-51
2023/03/11 05:02:27;;;;;;;1.30;1.30;;;;;;;14.69;64.24;92787.28;4992839;28;20177;-56
2023/03/11 05:04:54;;;;;;;1.30;1.20;;;;;;;14.71;64.01;92785.25;4993051;28;20229;-54
2023/03/11 05:07:21;;;;;;;1.20;1.20;;;;;;;14.71;63.93;92793.75;4992951;28;20197;-54
2023/03/11 05:09:48;;;;;;;1.13;1.13;;;;;;;14.73;64.05;92801.28;4992652;28;20197;-55
2023/03/11 05:12:15;;;;;;;1.10;1.10;;;;;;;14.74;63.81;92801.06;4992662;28;20267;-52
2023/03/11 05:14:41;;;;;;;1.20;1.20;;;;;;;14.76;63.82;92806.00;4992357;28;20220;-48
2023/03/11 05:17:10;;;;;;;1.20;1.20;;;;;;;14.78;63.84;92811.75;4993163;28;20197;-53
2023/03/11 05:19:39;;;;;;;1.27;1.20;;;;;;;14.79;63.62;92819.25;4993369;28;20281;-55
2023/03/11 05:22:07;;;;;;;1.37;1.30;;;;;;;14.80;63.71;92817.44;4993088;28;20193;-54
2023/03/11 05:24:34;;;;;;;1.50;1.40;;;;;;;14.83;63.76;92816.25;4992772;28;20209;-54
2023/03/11 05:27:01;;;;;;;1.30;1.20;;;;;;;14.85;63.52;92829.69;4992911;28;20682;-52
2023/03/11 05:29:28;;;;;;;1.10;1.10;;;;;;;14.78;63.39;92814.31;4993493;28;20193;-54
2023/03/11 05:31:55;;;;;;;1.20;1.20;;;;;;;14.89;63.50;92828.28;4992868;28;20189;-53
2023/03/11 05:34:22;;;;;;;1.20;1.20;;;;;;;14.90;63.30;92828.09;4992440;28;20629;-55
2023/03/11 05:36:50;;;;;;;1.10;1.10;;;;;;;14.92;63.03;92835.59;4992969;28;20193;-56
2023/03/11 05:39:17;;;;;;;1.30;1.20;;;;;;;14.96;63.17;92844.47;4992876;28;20200;-55
2023/03/11 05:41:44;;;;;;;1.13;1.13;;;;;;;14.97;63.10;92844.25;4992530;28;20642;-57
2023/03/11 05:44:11;;;;;;;1.30;1.30;;;;;;;15.01;62.93;92844.63;4992966;28;20192;-54
2023/03/11 05:46:38;;;;;;;1.33;1.33;;;;;;;15.05;62.87;92838.84;4992550;28;20189;-55
2023/03/11 05:49:05;;;;;;;1.20;1.20;;;;;;;15.09;62.69;92846.16;4991845;28;20197;-54
2023/03/11 05:51:32;;;;;;;1.30;1.30;;;;;;;15.13;62.87;92847.31;4992889;28;20193;-57
2023/03/11 05:54:00;;;;;;;1.40;1.30;;;;;;;15.16;62.55;92850.25;4992550;28;20228;-50
2023/03/11 05:56:27;;;;;;;1.20;1.20;;;;;;;15.21;62.63;92862.50;4990546;28;20231;-51
2023/03/11 05:58:56;;;;;;;1.40;1.40;;;;;;;15.24;62.52;92857.72;4992720;28;20201;-55
2023/03/11 06:01:23;;;;;;;1.30;1.30;;;;;;;15.26;62.50;92868.56;4992673;28;20200;-54
2023/03/11 06:03:50;;;;;;;1.27;1.27;;;;;;;15.25;62.49;92872.16;4992660;28;20193;-54
2023/03/11 06:06:20;;;;;;;1.27;1.27;;;;;;;15.29;62.44;92873.31;4992436;28;20189;-56
2023/03/11 06:08:49;;;;;;;1.33;1.30;;;;;;;15.30;62.25;92877.47;4992035;28;20205;-55
2023/03/11 06:11:18;;;;;;;1.37;1.27;;;;;;;15.30;62.01;92877.47;4991891;28;20256;-53
2023/03/11 06:13:45;;;;;;;1.67;1.23;;;;;;;15.32;62.23;92879.81;4991886;28;20213;-55
2023/03/11 06:16:12;;;;;;;1.10;1.10;;;;;;;15.31;62.37;92891.91;4992218;28;20189;-57
2023/03/11 06:18:38;;;;;;;1.10;1.10;;;;;;;15.33;62.27;92886.56;4991482;28;20223;-50
2023/03/11 06:21:07;;;;;;;1.50;1.40;;;;;;;15.34;62.35;92882.19;4991940;28;20200;-52
2023/03/11 06:23:34;;;;;;;1.30;1.30;;;;;;;15.37;62.43;92892.88;4991779;28;20743;-53
2023/03/11 06:26:02;;;;;;;1.20;1.20;;;;;;;15.38;62.39;92893.66;4991851;28;20200;-55
2023/03/11 06:28:31;;;;;;;1.30;1.30;;;;;;;15.39;62.23;92890.84;4991321;28;20189;-52
2023/03/11 06:31:07;;;;;;;1.40;1.30;;;;;;;15.39;62.53;92879.75;4991164;28;20178;-52
2023/03/11 06:33:37;;;;;;;1.30;1.30;;;;;;;15.42;62.32;92881.94;4991504;28;20445;-49
2023/03/11 06:36:08;;;;;;;1.50;1.40;;;;;;;15.43;62.46;92884.28;5010840;28;20597;-51
2023/03/11 06:38:36;;;;;;;1.50;1.40;;;;;;;15.47;62.10;92884.66;5005737;28;20398;-47
2023/03/11 06:41:05;;;;;;;1.40;1.30;;;;;;;15.45;62.41;92884.06;4991639;28;20193;-51
2023/03/11 06:43:34;;;;;;;1.20;1.20;;;;;;;15.49;62.35;92885.22;4991540;28;20208;-53
2023/03/11 06:46:01;;;;;;;1.33;1.30;;;;;;;15.52;62.32;92892.53;4991409;28;20855;-56
2023/03/11 06:48:28;;;;;;;1.23;1.23;;;;;;;15.54;62.17;92893.91;4991381;28;20573;-55
2023/03/11 06:50:55;;;;;;;1.30;1.30;;;;;;;15.56;62.23;92896.25;4991558;28;20197;-48
2023/03/11 06:53:22;;;;;;;1.90;1.40;;;;;;;15.59;62.30;92895.84;4991068;28;20227;-56
2023/03/11 06:55:59;;;;;;;1.23;1.23;;;;;;;15.60;62.29;92901.78;4991226;28;20667;-56
2023/03/11 06:58:25;;;;;;;1.37;1.30;;;;;;;15.61;62.21;92901.56;4990958;28;20267;-55
2023/03/11 07:00:54;;;;;;;1.40;1.30;;;;;;;15.61;62.21;92904.13;4990757;28;20197;-57
2023/03/11 07:03:21;;;;;;;1.60;1.50;;;;;;;15.64;62.17;92908.91;4990897;28;20189;-56
2023/03/11 07:05:51;;;;;;;2.70;1.77;;;;;;;15.67;62.06;92897.38;4991269;28;20193;-55
2023/03/11 07:08:18;;;;;;;1.40;1.30;;;;;;;15.67;62.05;92898.19;4991346;28;20622;-55
2023/03/11 07:10:45;;;;;;;1.37;1.30;;;;;;;15.74;61.94;92898.88;4990950;28;20281;-54
2023/03/11 07:13:12;;;;;;;1.60;1.50;;;;;;;15.82;61.84;92897.03;4991040;28;20277;-51
2023/03/11 07:15:39;;;;;;;1.37;1.27;;;;;;;15.83;61.74;92888.31;4990788;28;20263;-55
2023/03/11 07:18:07;;;;;;;2.00;1.30;;;;;;;15.95;61.69;92886.59;4991210;28;20197;-54
2023/03/11 07:20:34;;;;;;;1.33;1.23;;;;;;;16.00;61.68;92891.88;4990509;28;20197;-49
2023/03/11 07:23:01;;;;;;;1.20;1.20;;;;;;;16.07;61.42;92886.66;4990612;28;20197;-47
2023/03/11 07:25:28;;;;;;;1.50;1.40;;;;;;;16.14;61.44;92888.16;4990423;28;20193;-50
2023/03/11 07:27:54;;;;;;;2.53;1.40;;;;;;;16.23;61.08;92889.44;4990410;28;20204;-51
2023/03/11 07:30:21;;;;;;;1.50;1.40;;;;;;;16.35;60.98;92884.34;4989855;28;20193;-51
2023/03/11 07:32:48;;;;;;;2.60;1.30;;;;;;;16.51;60.74;92881.16;4990429;28;20196;-51
2023/03/11 07:35:16;;;;;;;1.40;1.30;;;;;;;16.72;60.41;92879.13;4989885;28;20959;-55
2023/03/11 07:37:43;;;;;;;1.27;1.27;;;;;;;17.00;60.07;92871.56;4987820;28;20236;-58
2023/03/11 07:40:11;;;;;;;1.50;1.40;;;;;;;17.41;59.89;92864.00;4987792;28;20696;-49
2023/03/11 07:42:39;;;;;;;1.40;1.33;;;;;;;18.02;60.51;92860.16;4987771;28;20199;-54
2023/03/11 07:45:07;;;;;;;1.20;1.20;;;;;;;18.76;61.30;92842.16;4987422;28;20190;-47
2023/03/11 07:47:33;;;;;;;4.23;1.37;;;;;;;19.34;69.45;92837.63;5000318;28;20184;-50
2023/03/11 07:50:00;;;;;;;1.67;1.40;;;;;;;19.73;69.20;92841.84;4993417;28;20605;-51
2023/03/11 07:52:31;;;;;;;3.83;1.30;;;;;;;20.37;67.04;92840.53;4996879;28;20193;-48
2023/03/11 07:54:58;;;;;;;2.23;1.90;;;;;;;21.09;64.91;92839.44;5007208;28;20332;-49
2023/03/11 07:57:25;;;;;;;1.43;1.30;;;;;;;21.77;62.81;92841.25;4989933;28;20189;-50
2023/03/11 07:59:52;;;;;;;1.47;1.30;;;;;;;22.38;60.68;92834.78;4987287;28;20658;-49
2023/03/11 08:02:19;;;;;;;2.47;1.23;;;;;;;22.91;59.41;92825.00;4987424;28;20185;-49
2023/03/11 08:04:46;;;;;;;2.90;1.50;;;;;;;23.37;58.44;92819.81;4987747;28;20201;-55
2023/03/11 08:07:13;;;;;;;2.28;1.52;;;;;;;23.76;57.49;92812.97;4987576;28;20196;-52
2023/03/11 08:09:41;;;;;;;1.52;1.40;;;;;;;24.10;56.30;92814.97;5004660;28;20199;-46
2023/03/11 08:12:08;;;;;;;3.70;1.33;;;;;;;24.45;55.22;92815.91;4992185;28;20666;-49
2023/03/11 08:14:35;;;;;;;3.35;1.30;;;;;;;24.75;54.39;92809.72;4986443;28;20215;-52
2023/03/11 08:17:02;;;;;;;5.53;1.35;;;;;;;25.06;53.53;92802.44;4987055;28;20185;-52
2023/03/11 08:19:29;;;;;;;4.50;1.38;;;;;;;25.32;52.74;92789.19;4986815;28;20213;-53
2023/03/11 08:21:56;;;;;;;2.08;1.25;;;;;;;25.56;52.54;92786.59;4987073;28;20189;-52
2023/03/11 08:24:23;;;;;;;4.30;1.50;;;;;;;25.71;52.29;92776.75;4986827;28;20193;-54
2023/03/11 08:26:51;;;;;;;1.58;1.48;;;;;;;25.94;52.47;92775.22;4986260;28;20197;-51
2023/03/11 08:29:17;;;;;;;8.57;1.60;;;;;;;26.12;51.85;92773.72;5006800;28;20204;-54
2023/03/11 08:31:44;;;;;;;4.18;1.48;;;;;;;26.27;51.24;92773.50;4999624;28;20204;-51
2023/03/11 08:34:12;;;;;;;6.50;1.25;;;;;;;26.40;51.01;92773.88;4989557;28;20594;-54
2023/03/11 08:36:39;;;;;;;6.13;1.50;;;;;;;26.49;50.63;92759.88;4990074;28;20196;-51
2023/03/11 08:39:06;;;;;;;6.30;1.63;;;;;;;26.56;50.59;92758.75;4989205;28;20517;-51
2023/03/11 08:41:33;;;;;;;5.28;1.52;;;;;;;26.60;50.13;92762.34;4989815;28;20196;-54
2023/03/11 08:44:01;;;;;;;2.20;1.10;;;;;;;26.69;48.75;92760.69;4988905;28;20669;-46
2023/03/11 08:46:30;;;;;;;1.58;1.25;;;;;;;26.88;47.39;92760.63;4988564;28;20201;-55
2023/03/11 08:48:58;;;;;;;5.40;1.55;;;;;;;27.09;47.10;92751.41;4988689;28;20295;-49
2023/03/11 08:51:26;;;;;;;4.75;1.65;;;;;;;27.30;46.71;92757.13;4988765;28;20730;-50
2023/03/11 08:53:53;;;;;;;1.30;1.20;;;;;;;27.48;45.99;92751.00;4987630;28;20312;-52
2023/03/11 08:56:20;;;;;;;2.65;1.38;;;;;;;27.63;46.34;92754.41;4989097;28;20242;-52
2023/03/11 08:58:47;;;;;;;1.77;1.48;;;;;;;27.77;45.56;92749.22;4989561;28;20205;-52
2023/03/11 09:01:16;;;;;;;2.20;1.38;;;;;;;27.85;45.75;92746.69;4989312;28;20356;-50
2023/03/11 09:03:42;;;;;;;4.10;1.40;;;;;;;27.89;45.41;92739.00;4989751;28;20193;-51
2023/03/11 09:06:14;;;;;;;2.45;1.30;;;;;;;27.99;44.96;92750.09;4988935;28;20189;-55
2023/03/11 09:08:41;;;;;;;1.40;1.30;;;;;;;28.01;44.82;92753.19;4989641;28;20199;-54
2023/03/11 09:11:08;;;;;;;2.78;1.30;;;;;;;28.03;44.45;92757.41;4989140;28;20561;-52
2023/03/11 09:13:35;;;;;;;3.15;1.27;;;;;;;27.88;45.28;92761.09;4988021;28;20204;-54
2023/03/11 09:16:04;;;;;;;1.42;1.33;;;;;;;27.67;45.61;92750.16;4989075;28;20578;-47
2023/03/11 09:18:32;;;;;;;1.80;1.40;;;;;;;27.53;45.71;92752.78;4988093;28;20204;-55
2023/03/11 09:21:00;;;;;;;1.40;1.30;;;;;;;27.39;45.64;92755.38;4989420;28;20185;-51
2023/03/11 09:23:27;;;;;;;1.33;1.10;;;;;;;27.24;45.58;92745.13;4991689;28;20209;-51
2023/03/11 09:25:54;;;;;;;1.25;1.08;;;;;;;27.16;45.66;92751.03;4992798;28;20197;-51
2023/03/11 09:28:20;;;;;;;4.35;1.40;;;;;;;27.06;45.06;92738.84;4993009;28;20197;-53
2023/03/11 09:30:47;;;;;;;1.85;1.20;;;;;;;26.98;44.94;92742.13;4993042;28;20189;-53
2023/03/11 09:33:14;;;;;;;1.33;1.23;;;;;;;26.89;44.66;92730.72;4992652;28;20281;-52
2023/03/11 09:35:43;;;;;;;1.33;1.15;;;;;;;26.77;44.54;92725.94;4992407;28;20315;-51
2023/03/11 09:38:10;;;;;;;1.20;1.20;;;;;;;26.63;44.65;92718.00;4992482;28;20201;-54
2023/03/11 09:40:51;;;;;;;2.95;1.40;;;;;;;26.49;44.18;92706.69;4992663;28;20208;-54
2023/03/11 09:43:36;;;;;;;2.13;1.20;;;;;;;26.40;44.48;92717.00;4990847;28;20197;-50
2023/03/11 09:46:15;;;;;;;2.17;1.33;;;;;;;26.35;44.15;92722.31;4992234;28;20616;-54
2023/03/11 09:48:48;;;;;;;2.38;1.50;;;;;;;26.30;43.79;92722.38;4992832;28;20193;-53
2023/03/11 09:51:22;;;;;;;1.67;1.20;;;;;;;26.27;43.70;92715.88;4992373;28;20204;-55
2023/03/11 09:53:59;;;;;;;2.20;1.42;;;;;;;26.20;43.64;92718.03;4992543;28;20207;-53
2023/03/11 09:56:26;;;;;;;1.70;1.30;;;;;;;26.09;43.28;92721.88;4992276;28;20236;-55
2023/03/11 09:58:58;;;;;;;1.20;1.20;;;;;;;25.94;43.72;92708.97;4992296;28;20199;-55
2023/03/11 10:01:28;;;;;;;1.50;1.40;;;;;;;25.77;43.15;92715.44;4992202;28;20269;-56
2023/03/11 10:04:00;;;;;;;1.70;1.35;;;;;;;25.64;43.20;92716.06;4992216;28;20197;-55
2023/03/11 10:06:30;;;;;;;2.67;1.35;;;;;;;25.57;43.41;92723.50;4991620;28;20185;-56
2023/03/11 10:09:03;;;;;;;1.13;1.10;;;;;;;25.44;43.64;92726.78;4991937;28;20632;-52
2023/03/11 10:11:46;;;;;;;1.20;1.10;;;;;;;25.20;43.31;92726.75;4992651;28;20545;-56
2023/03/11 10:14:20;;;;;;;4.68;1.92;;;;;;;24.95;43.46;92730.34;4992005;28;20193;-52
2023/03/11 10:16:56;;;;;;;1.58;1.48;;;;;;;24.81;43.33;92737.25;4992240;28;20255;-53
2023/03/11 10:19:34;;;;;;;2.47;1.50;;;;;;;24.68;43.75;92742.03;4992046;28;20569;-54
2023/03/11 10:22:12;;;;;;;1.25;1.20;;;;;;;24.55;43.65;92731.44;4992499;28;20204;-51
2023/03/11 10:24:56;;;;;;;2.35;1.33;;;;;;;24.47;44.11;92738.00;4992047;28;20197;-53
2023/03/11 10:27:27;;;;;;;1.60;1.23;;;;;;;24.40;43.79;92748.78;4992112;28;20200;-56
2023/03/11 10:30:00;;;;;;;2.75;1.45;;;;;;;24.33;43.94;92740.41;4992179;28;20248;-52
2023/03/11 10:32:37;;;;;;;1.77;1.42;;;;;;;24.27;43.79;92744.91;4989832;28;20197;-57
2023/03/11 10:35:14;;;;;;;1.40;1.30;;;;;;;24.23;44.20;92738.66;4990330;28;20221;-53
2023/03/11 10:37:46;;;;;;;2.22;1.50;;;;;;;24.16;44.14;92740.00;4990354;28;20204;-55
2023/03/11 10:40:22;;;;;;;1.38;1.27;;;;;;;24.00;44.11;92726.22;4991117;28;20280;-56
2023/03/11 10:42:51;;;;;;;1.80;1.40;;;;;;;23.85;44.09;92723.69;4991100;28;20259;-54
2023/03/11 10:45:22;;;;;;;1.70;1.60;;;;;;;23.68;44.40;92729.22;4991330;28;20201;-55
2023/03/11 10:47:49;;;;;;;1.73;1.60;;;;;;;23.51;44.18;92737.34;4991560;28;20637;-56
2023/03/11 10:50:17;;;;;;;2.97;1.40;;;;;;;23.34;44.67;92726.41;4991437;28;20295;-54
2023/03/11 10:53:06;;;;;;;1.48;1.38;;;;;;;23.25;44.39;92744.44;4991116;28;20189;-57
2023/03/11 10:55:33;;;;;;;1.50;1.40;;;;;;;23.17;44.47;92750.19;4990850;28;20240;-49
2023/03/11 10:58:12;;;;;;;1.75;1.38;;;;;;;23.11;44.52;92749.41;4988726;28;20193;-48
2023/03/11 11:00:39;;;;;;;1.33;1.30;;;;;;;23.10;44.76;92752.25;4990668;28;20251;-53
2023/03/11 11:03:16;;;;;;;1.75;1.65;;;;;;;23.09;44.38;92748.88;4990457;28;20566;-51
2023/03/11 11:05:43;;;;;;;2.78;1.35;;;;;;;23.08;44.64;92754.38;4990916;28;20193;-54
2023/03/11 11:08:14;;;;;;;1.65;1.55;;;;;;;23.23;44.18;92743.94;4990660;28;20192;-51
2023/03/11 11:10:51;;;;;;;1.45;1.35;;;;;;;23.33;44.33;92743.91;4990778;28;20197;-51
2023/03/11 11:13:20;;;;;;;1.88;1.70;;;;;;;23.39;44.08;92745.44;4990021;28;20291;-52
2023/03/11 11:15:55;;;;;;;1.73;1.63;;;;;;;23.46;43.88;92740.75;4989998;28;20213;-52
2023/03/11 11:18:26;;;;;;;1.60;1.50;;;;;;;23.47;43.99;92728.47;4989909;28;20195;-51
2023/03/11 11:20:56;;;;;;;1.67;1.50;;;;;;;23.43;44.20;92732.66;4990568;28;20581;-48
2023/03/11 11:23:32;;;;;;;1.48;1.38;;;;;;;23.38;43.81;92736.06;4990215;28;20198;-52
2023/03/11 11:26:01;;;;;;;1.40;1.30;;;;;;;23.30;43.95;92736.59;4990442;28;20196;-52
2023/03/11 11:28:28;;;;;;;1.50;1.40;;;;;;;23.21;44.32;92732.97;4989602;28;20613;-53
2023/03/11 11:30:57;;;;;;;1.42;1.27;;;;;;;23.14;44.15;92727.22;4990241;28;20255;-49
2023/03/11 11:33:27;;;;;;;1.77;1.30;;;;;;;23.07;44.22;92713.69;4989962;28;20197;-49
2023/03/11 11:35:56;;;;;;;1.35;1.27;;;;;;;23.02;44.37;92709.28;4990095;28;20232;-51
2023/03/11 11:38:25;;;;;;;1.33;1.23;;;;;;;22.97;44.53;92707.47;4990014;28;20186;-49
2023/03/11 11:40:56;;;;;;;2.92;1.52;;;;;;;22.93;44.62;92690.78;4989997;28;20677;-48